Decoded Metar for KMHL ( in ) (IATA:) | Meteo·Mobile Aviation Weather
aviador You're here:

KMHL Decoded Metar

in
Report Time2018-09-23 19:35:00
UTC Time2018-09-23 19:37:22
Flight Rules vfr VFR
Wind130° at 08 kt
W.Decomp.*RWY 09: 6.1 kt HW 5.1 kt RCW
RWY 18: 5.1 kt HW 6.1 kt LCW
W.Rank130° ranks 8
Current wind is above 130° avg. (6.8)
Visibility9999 m
Phenomena:N/A
Clouds:N/A
Expected CloudBase > 5,200 ft AGL from Temp-Dew spread
CeilingNone
Temp25°C
Dew Point12°C (44% RH)
AAT22.7°C
QNH1018 hPa
Raw Report
KMHL 231935Z AUTO 13008KT 10SM CLR 25/12 A3005 RMK AO2=

Extra information for KMHL:More info

Social comments